TimeMDT,TemperatureF,Dew PointF,Humidity,Sea Level PressureIn,VisibilityMPH,Wind Direction,Wind SpeedMPH,Gust SpeedMPH,PrecipitationIn,Events,Conditions,WindDirDegrees,DateUTC
12:30 AM,26.6,24.8,93,29.86,1.8,NNW,9.2,18.4,0.00,Snow,Light Snow,340,2013-10-11 06:30:00
12:37 AM,26.6,24.8,93,29.86,3.0,North,6.9,-,0.00,Snow,Light Snow,360,2013-10-11 06:37:00
12:53 AM,27.0,23.0,85,29.60,8.0,North,9.2,-,0.00,Snow,Light Snow,10,2013-10-11 06:53:00
1:53 AM,28.0,23.0,81,29.62,9.0,NNW,9.2,19.6,0.00,Snow,Light Snow,330,2013-10-11 07:53:00
2:53 AM,28.0,21.9,78,29.71,10.0,NNW,8.1,-,0.00,,Overcast,330,2013-10-11 08:53:00
3:53 AM,28.0,21.9,78,29.72,10.0,NNE,11.5,20.7,0.00,,Overcast,20,2013-10-11 09:53:00
4:53 AM,28.9,21.9,75,29.74,10.0,NNW,9.2,20.7,N/A,,Overcast,330,2013-10-11 10:53:00
5:53 AM,28.9,23.0,78,29.77,8.0,NNE,10.4,19.6,0.00,Snow,Light Snow,20,2013-10-11 11:53:00
6:21 AM,28.4,23.0,80,29.96,10.0,North,9.2,-,0.00,,Overcast,360,2013-10-11 12:21:00
6:53 AM,28.0,23.0,81,29.82,7.0,North,11.5,-,0.00,Snow,Light Snow,350,2013-10-11 12:53:00
7:25 AM,28.4,23.0,80,29.98,7.0,North,10.4,-,0.00,Snow,Light Snow,350,2013-10-11 13:25:00
7:53 AM,28.9,23.0,78,29.85,8.0,North,10.4,-,0.00,Snow,Light Snow,350,2013-10-11 13:53:00
8:24 AM,28.4,24.8,86,30.01,1.8,NNW,9.2,-,0.00,Snow,Light Snow,340,2013-10-11 14:24:00
8:36 AM,28.4,24.8,86,30.01,3.0,Variable,6.9,-,0.00,Snow,Light Snow,0,2013-10-11 14:36:00
8:45 AM,28.4,24.8,86,30.02,8.0,NNW,9.2,-,0.00,Snow,Light Snow,330,2013-10-11 14:45:00
8:53 AM,30.0,24.1,79,29.86,6.0,NW,9.2,-,0.00,Snow,Light Snow,320,2013-10-11 14:53:00
9:53 AM,30.9,25.0,79,29.86,9.0,NNW,11.5,-,0.00,Snow,Light Snow,340,2013-10-11 15:53:00
10:37 AM,32.0,24.8,75,30.04,10.0,NNW,11.5,19.6,0.00,,Overcast,330,2013-10-11 16:37:00
10:53 AM,33.1,25.0,72,29.86,10.0,NW,12.7,19.6,0.00,,Mostly Cloudy,310,2013-10-11 16:53:00
11:08 AM,33.8,24.8,70,30.04,10.0,WNW,13.8,21.9,N/A,,Mostly Cloudy,300,2013-10-11 17:08:00
11:53 AM,34.0,26.1,73,29.86,10.0,NW,12.7,17.3,N/A,,Overcast,310,2013-10-11 17:53:00
12:53 PM,34.0,25.0,70,29.86,10.0,WNW,13.8,-,N/A,,Overcast,300,2013-10-11 18:53:00
1:53 PM,36.0,26.1,67,29.86,10.0,NNW,9.2,-,N/A,,Mostly Cloudy,340,2013-10-11 19:53:00
2:53 PM,37.0,24.1,59,29.85,10.0,NW,10.4,-,N/A,,Overcast,310,2013-10-11 20:53:00
3:53 PM,35.1,24.1,64,29.89,10.0,NW,8.1,-,N/A,,Overcast,320,2013-10-11 21:53:00
4:53 PM,37.0,25.0,62,29.88,10.0,NW,10.4,-,N/A,,Mostly Cloudy,320,2013-10-11 22:53:00
5:53 PM,34.0,25.0,70,29.92,10.0,NNW,8.1,-,N/A,,Mostly Cloudy,330,2013-10-11 23:53:00
6:53 PM,32.0,24.1,73,29.96,10.0,North,9.2,19.6,N/A,,Overcast,350,2013-10-12 00:53:00
7:53 PM,30.9,21.9,69,29.98,10.0,NNW,11.5,17.3,N/A,,Clear,340,2013-10-12 01:53:00
8:53 PM,30.0,21.9,72,30.00,10.0,WNW,5.8,-,N/A,,Clear,300,2013-10-12 02:53:00
9:53 PM,28.9,21.9,75,30.02,10.0,North,6.9,-,N/A,,Clear,360,2013-10-12 03:53:00
10:53 PM,28.0,21.9,78,30.02,10.0,Calm,Calm,-,N/A,,Scattered Clouds,0,2013-10-12 04:53:00
11:53 PM,28.9,21.0,72,30.00,10.0,North,6.9,-,N/A,,Partly Cloudy,360,2013-10-12 05:53:00